createdAt,value
2019-03-18T00:01:03.595Z,7.17
2019-03-18T00:03:33.156Z,6.80
2019-03-18T00:06:02.638Z,6.53
2019-03-18T00:08:32.050Z,6.87
2019-03-18T00:11:01.411Z,6.70
2019-03-18T00:13:30.901Z,7.00
2019-03-18T00:16:00.416Z,7.23
2019-03-18T00:18:29.791Z,6.90
2019-03-18T00:20:59.179Z,7.00
2019-03-18T00:23:28.711Z,6.93
2019-03-18T00:25:58.190Z,7.03
2019-03-18T00:28:27.570Z,6.73
2019-03-18T00:30:56.995Z,6.80
2019-03-18T00:33:26.472Z,6.90
2019-03-18T00:35:55.933Z,6.73
2019-03-18T00:38:25.535Z,7.10
2019-03-18T00:40:55.009Z,7.03
2019-03-18T00:43:24.574Z,6.83
2019-03-18T00:45:54.027Z,6.77
2019-03-18T00:48:23.514Z,7.47
2019-03-18T00:50:52.991Z,7.17
2019-03-18T00:53:22.386Z,7.90
2019-03-18T00:55:51.954Z,7.23
2019-03-18T00:58:21.532Z,6.60
2019-03-18T01:00:51.061Z,6.90
2019-03-18T01:03:20.463Z,7.33
2019-03-18T01:05:49.898Z,7.60
2019-03-18T01:08:19.376Z,7.07
2019-03-18T01:10:48.886Z,7.70
2019-03-18T01:13:18.307Z,7.07
2019-03-18T01:15:47.683Z,6.80
2019-03-18T01:18:17.171Z,7.27
2019-03-18T01:20:46.599Z,7.43
2019-03-18T01:23:16.123Z,6.60
2019-03-18T01:25:45.636Z,7.57
2019-03-18T01:28:15.026Z,7.53
2019-03-18T01:30:44.434Z,7.10
2019-03-18T01:33:13.964Z,6.40
2019-03-18T01:35:43.463Z,6.87
2019-03-18T01:38:12.850Z,6.87
2019-03-18T01:40:42.274Z,6.20
2019-03-18T01:43:11.764Z,6.00
2019-03-18T01:45:41.347Z,6.57
2019-03-18T01:48:10.749Z,7.17
2019-03-18T01:50:40.129Z,7.63
2019-03-18T01:53:09.633Z,7.77
2019-03-18T01:55:39.164Z,7.93
2019-03-18T01:58:08.549Z,7.37
2019-03-18T02:00:39.117Z,8.03
2019-03-18T02:03:08.572Z,10.80
2019-03-18T02:05:37.962Z,9.10
2019-03-18T02:08:07.457Z,10.30
2019-03-18T02:10:36.971Z,11.10
2019-03-18T02:13:06.351Z,10.80
2019-03-18T02:15:35.747Z,11.63
2019-03-18T02:18:05.440Z,13.50
2019-03-18T02:20:34.916Z,19.07
2019-03-18T02:23:04.298Z,14.60
2019-03-18T02:25:33.697Z,13.40
2019-03-18T02:28:03.398Z,14.20
2019-03-18T02:30:32.883Z,13.80
2019-03-18T02:33:02.246Z,12.93
2019-03-18T02:35:31.735Z,14.00
2019-03-18T02:38:01.228Z,14.97
2019-03-18T02:40:30.609Z,15.33
2019-03-18T02:43:00.130Z,15.73
2019-03-18T02:45:29.613Z,16.23
2019-03-18T03:01:22.250Z,11.70
2019-03-18T03:03:51.676Z,11.17
2019-03-18T03:06:21.233Z,11.27
2019-03-18T03:08:50.839Z,11.57
2019-03-18T03:11:20.254Z,12.00
2019-03-18T03:13:49.681Z,10.73
2019-03-18T03:16:26.208Z,11.00
2019-03-18T03:18:50.616Z,10.77
2019-03-18T03:21:20.039Z,11.07
2019-03-18T03:23:49.445Z,10.93
2019-03-18T03:26:18.989Z,10.23
2019-03-18T03:28:48.492Z,11.47
2019-03-18T03:31:17.882Z,11.03
2019-03-18T03:33:47.319Z,12.37
2019-03-18T03:36:16.784Z,12.80
2019-03-18T03:38:46.303Z,11.37
2019-03-18T03:41:17.860Z,13.43
2019-03-18T03:43:46.824Z,13.53
2019-03-18T03:46:16.308Z,14.23
2019-03-18T03:48:45.828Z,13.10
2019-03-18T03:51:15.225Z,13.47
2019-03-18T03:53:44.612Z,12.57
2019-03-18T03:56:14.251Z,13.93
2019-03-18T03:58:43.848Z,13.07
2019-03-18T04:01:13.246Z,13.77
2019-03-18T04:03:42.832Z,13.27
2019-03-18T04:06:12.417Z,13.23
2019-03-18T04:08:41.898Z,14.23
2019-03-18T04:11:11.426Z,13.27
2019-03-18T04:13:40.932Z,13.50
2019-03-18T04:16:10.344Z,11.60
2019-03-18T04:18:39.771Z,10.43
2019-03-18T04:21:09.264Z,11.00
2019-03-18T04:23:38.763Z,12.90
2019-03-18T04:26:09.277Z,12.63
2019-03-18T04:28:38.681Z,15.13
2019-03-18T04:31:08.167Z,12.73
2019-03-18T04:33:39.485Z,12.00
2019-03-18T04:36:09.017Z,12.50
2019-03-18T04:38:38.414Z,11.53
2019-03-18T04:41:08.186Z,12.63
2019-03-18T04:43:37.682Z,13.47
2019-03-18T04:46:07.355Z,14.03
2019-03-18T04:48:36.774Z,14.70
2019-03-18T04:51:06.271Z,14.43
2019-03-18T04:53:35.648Z,14.23
2019-03-18T04:56:07.252Z,14.20
2019-03-18T04:58:36.728Z,13.70
2019-03-18T05:01:06.487Z,13.30
2019-03-18T05:03:36.091Z,14.70
2019-03-18T05:06:05.598Z,14.03
2019-03-18T05:08:35.098Z,13.33
2019-03-18T05:11:04.528Z,13.63
2019-03-18T05:13:33.990Z,13.10
2019-03-18T05:16:03.497Z,12.03
2019-03-18T05:18:33.184Z,12.10
2019-03-18T05:21:02.580Z,11.37
2019-03-18T05:23:31.965Z,10.80
2019-03-18T05:26:01.510Z,11.40
2019-03-18T05:28:31.019Z,11.30
2019-03-18T05:31:01.422Z,12.33
2019-03-18T05:33:30.941Z,11.70
2019-03-18T05:36:00.320Z,13.00
2019-03-18T05:38:29.758Z,13.10
2019-03-18T05:40:59.306Z,12.67
2019-03-18T05:43:28.828Z,11.57
2019-03-18T05:45:58.223Z,11.07
2019-03-18T05:48:29.128Z,11.33
2019-03-18T05:50:58.611Z,11.57
2019-03-18T05:53:28.028Z,13.30
2019-03-18T05:55:57.627Z,11.10
2019-03-18T05:58:27.013Z,10.80
2019-03-18T06:00:56.506Z,11.20
2019-03-18T06:03:26.285Z,10.57
2019-03-18T06:05:55.869Z,11.73
2019-03-18T06:08:25.240Z,10.67
2019-03-18T06:10:54.776Z,11.97
2019-03-18T06:13:24.149Z,11.97
2019-03-18T06:15:53.658Z,12.27
2019-03-18T06:18:23.347Z,12.57
2019-03-18T06:20:52.746Z,13.47
2019-03-18T06:23:22.134Z,13.77
2019-03-18T06:25:51.824Z,13.47
2019-03-18T06:28:21.340Z,17.77
2019-03-18T06:30:50.745Z,14.80
2019-03-18T06:33:20.220Z,14.03
2019-03-18T06:35:49.711Z,14.23
2019-03-18T06:38:19.193Z,12.80
2019-03-18T06:40:48.769Z,12.60
2019-03-18T06:43:18.161Z,11.93
2019-03-18T06:45:47.628Z,12.63
2019-03-18T06:48:17.296Z,11.40
2019-03-18T06:50:46.663Z,17.60
2019-03-18T06:53:16.130Z,11.67
2019-03-18T06:55:45.548Z,14.40
2019-03-18T06:58:14.909Z,11.63
2019-03-18T07:00:44.374Z,11.70
2019-03-18T07:03:14.037Z,12.37
2019-03-18T07:05:46.124Z,11.40
2019-03-18T07:08:14.516Z,12.07
2019-03-18T07:10:44.016Z,13.00
2019-03-18T07:13:13.481Z,12.77
2019-03-18T07:15:42.857Z,11.40
2019-03-18T07:18:18.034Z,12.37
2019-03-18T07:20:43.631Z,12.80
2019-03-18T07:23:13.101Z,12.70
2019-03-18T07:25:42.524Z,13.17
2019-03-18T07:28:11.890Z,12.17
2019-03-18T07:30:41.356Z,11.20
2019-03-18T07:33:10.955Z,11.07
2019-03-18T07:35:40.415Z,11.53
2019-03-18T07:38:09.877Z,11.57
2019-03-18T07:40:39.275Z,12.83
2019-03-18T07:43:08.703Z,12.50
2019-03-18T07:45:38.165Z,12.97
2019-03-18T07:48:07.680Z,13.63
2019-03-18T07:50:37.054Z,15.13
2019-03-18T07:53:06.420Z,13.03
2019-03-18T07:55:35.921Z,13.43
2019-03-18T07:58:05.395Z,12.67
2019-03-18T08:00:34.766Z,12.87
2019-03-18T08:03:04.256Z,12.60
2019-03-18T08:05:33.718Z,11.73
2019-03-18T08:08:03.203Z,12.33
2019-03-18T08:10:32.620Z,15.30
2019-03-18T08:13:02.822Z,15.23
2019-03-18T08:15:32.187Z,14.60
2019-03-18T08:18:02.537Z,16.33
2019-03-18T08:20:32.010Z,13.33
2019-03-18T08:23:01.488Z,15.97
2019-03-18T08:25:31.016Z,15.43
2019-03-18T08:28:00.380Z,14.90
2019-03-18T08:30:29.854Z,13.40
2019-03-18T08:32:59.367Z,13.77
2019-03-18T08:35:28.819Z,11.63
2019-03-18T08:37:58.207Z,10.80
2019-03-18T08:40:27.868Z,9.27
2019-03-18T08:42:57.346Z,9.03
2019-03-18T08:45:26.714Z,8.63
2019-03-18T08:47:56.138Z,8.47
2019-03-18T08:50:25.608Z,8.10
2019-03-18T08:52:55.090Z,7.93
2019-03-18T08:55:24.656Z,7.03
2019-03-18T08:57:54.018Z,8.07
2019-03-18T09:00:56.660Z,8.03
2019-03-18T09:03:26.139Z,7.23
2019-03-18T09:05:55.551Z,8.60
2019-03-18T09:08:26.550Z,7.53
2019-03-18T09:10:56.175Z,7.70
2019-03-18T09:13:26.683Z,7.20
2019-03-18T09:15:56.022Z,7.10
2019-03-18T09:18:25.414Z,6.90
2019-03-18T09:20:54.919Z,6.20
2019-03-18T09:23:24.379Z,6.17
2019-03-18T09:25:53.746Z,8.07
2019-03-18T09:28:23.144Z,7.60
2019-03-18T09:30:52.614Z,7.50
2019-03-18T09:33:21.996Z,7.37
2019-03-18T09:35:51.496Z,8.70
2019-03-18T09:38:20.991Z,8.53
2019-03-18T09:40:50.515Z,7.17
2019-03-18T09:43:20.002Z,5.70
2019-03-18T09:45:49.487Z,8.40
2019-03-18T09:48:18.972Z,7.43
2019-03-18T09:50:48.414Z,6.73
2019-03-18T09:53:17.801Z,9.23
2019-03-18T09:55:47.276Z,8.90
2019-03-18T09:58:16.787Z,7.40
2019-03-18T10:00:46.157Z,7.67
2019-03-18T10:03:15.627Z,7.97
2019-03-18T10:05:45.285Z,6.70
2019-03-18T10:08:14.760Z,6.33
2019-03-18T10:10:44.136Z,7.67
2019-03-18T10:13:13.644Z,7.03
2019-03-18T10:15:43.032Z,7.43
2019-03-18T10:18:12.414Z,7.97
2019-03-18T10:20:41.923Z,6.57
2019-03-18T10:23:11.410Z,5.57
2019-03-18T10:25:40.774Z,5.97
2019-03-18T10:28:10.182Z,6.10
2019-03-18T10:30:39.632Z,5.13
2019-03-18T10:33:09.101Z,4.90
2019-03-18T10:35:38.501Z,4.63
2019-03-18T10:38:07.863Z,5.10
2019-03-18T10:40:37.317Z,4.30
2019-03-18T10:43:06.826Z,4.80
2019-03-18T10:45:36.188Z,4.70
2019-03-18T10:48:05.563Z,4.53
2019-03-18T10:50:35.109Z,4.60
2019-03-18T10:53:04.477Z,4.47
2019-03-18T10:55:33.950Z,4.20
2019-03-18T10:58:03.452Z,4.73
2019-03-18T11:00:32.832Z,4.33
2019-03-18T11:03:02.187Z,4.10
2019-03-18T11:05:31.861Z,4.27
2019-03-18T11:08:01.394Z,4.10
2019-03-18T11:10:30.749Z,4.50
2019-03-18T11:13:00.165Z,3.90
2019-03-18T11:15:29.627Z,3.90
2019-03-18T11:17:59.121Z,4.03
2019-03-18T11:20:28.536Z,4.10
2019-03-18T11:22:57.903Z,3.90
2019-03-18T11:25:27.384Z,4.80
2019-03-18T11:27:57.043Z,3.73
2019-03-18T11:30:26.409Z,3.93
2019-03-18T11:32:55.883Z,4.10
2019-03-18T11:35:25.434Z,3.93
2019-03-18T11:37:54.815Z,4.03
2019-03-18T11:40:24.290Z,4.33
2019-03-18T11:42:54.057Z,4.50
2019-03-18T11:45:23.420Z,4.40
2019-03-18T11:47:52.811Z,4.47
2019-03-18T11:50:22.495Z,4.40
2019-03-18T11:52:51.980Z,4.53
2019-03-18T11:55:21.422Z,4.07
2019-03-18T11:57:50.986Z,4.27
2019-03-18T12:00:20.569Z,4.90
2019-03-18T12:02:50.034Z,4.33
2019-03-18T12:05:19.543Z,3.77
2019-03-18T12:07:48.919Z,3.60
2019-03-18T12:10:18.487Z,4.23
2019-03-18T12:12:47.892Z,3.57
2019-03-18T12:15:17.470Z,3.87
2019-03-18T12:17:47.035Z,3.77
2019-03-18T12:20:24.223Z,3.83
2019-03-18T12:22:47.858Z,4.17
2019-03-18T12:25:17.327Z,3.00
2019-03-18T12:27:46.844Z,3.20
2019-03-18T12:30:17.742Z,3.10
2019-03-18T12:32:47.215Z,3.80
2019-03-18T12:35:16.784Z,3.73
2019-03-18T12:37:46.358Z,3.20
2019-03-18T12:40:15.760Z,3.37
2019-03-18T12:42:45.577Z,3.60
2019-03-18T12:45:15.178Z,3.37
2019-03-18T12:47:44.748Z,3.90
2019-03-18T12:50:15.551Z,3.93
2019-03-18T12:52:45.102Z,3.37
2019-03-18T12:55:14.468Z,3.70
2019-03-18T12:57:43.913Z,4.07
2019-03-18T13:00:16.719Z,4.03
2019-03-18T13:02:46.278Z,4.30
2019-03-18T13:05:15.888Z,3.90
2019-03-18T13:07:45.283Z,3.70
2019-03-18T13:10:15.486Z,4.00
2019-03-18T13:12:45.103Z,4.07
2019-03-18T13:15:15.589Z,3.70
2019-03-18T13:17:45.109Z,3.70
2019-03-18T13:20:15.069Z,3.00
2019-03-18T13:22:44.601Z,3.73
2019-03-18T13:25:14.230Z,3.70
2019-03-18T13:27:43.640Z,3.30
2019-03-18T13:30:15.488Z,3.73
2019-03-18T13:32:44.971Z,2.93
2019-03-18T13:35:14.875Z,3.70
2019-03-18T13:37:44.462Z,4.17
2019-03-18T13:40:15.327Z,4.77
2019-03-18T13:42:44.940Z,4.20
2019-03-18T13:45:15.237Z,4.47
2019-03-18T13:47:44.720Z,3.37
2019-03-18T13:50:15.392Z,3.83
2019-03-18T13:52:44.762Z,3.00
2019-03-18T13:55:14.224Z,3.53
2019-03-18T13:57:43.730Z,3.30
2019-03-18T14:00:14.383Z,2.90
2019-03-18T14:02:43.938Z,3.17
2019-03-18T14:05:13.675Z,2.87
2019-03-18T14:07:43.238Z,3.07
2019-03-18T14:10:13.752Z,2.90
2019-03-18T14:12:43.311Z,3.17
2019-03-18T14:15:14.602Z,2.77
2019-03-18T14:17:44.074Z,2.80
2019-03-18T14:20:14.561Z,3.10
2019-03-18T14:22:44.130Z,3.10
2019-03-18T14:25:13.808Z,3.27
2019-03-18T14:27:43.636Z,3.27
2019-03-18T14:30:15.098Z,3.50
2019-03-18T14:32:44.597Z,3.70
2019-03-18T14:35:14.476Z,3.70
2019-03-18T14:37:44.020Z,2.70
2019-03-18T14:40:14.061Z,3.03
2019-03-18T14:42:43.658Z,2.73
2019-03-18T14:45:15.477Z,3.87
2019-03-18T14:47:44.991Z,3.00
2019-03-18T14:50:14.732Z,2.20
2019-03-18T14:52:44.320Z,2.25
2019-03-18T14:55:13.742Z,1.75
2019-03-18T14:57:43.187Z,2.20
2019-03-18T15:00:15.996Z,2.00
2019-03-18T15:02:45.467Z,2.00
2019-03-18T15:05:15.141Z,1.77
2019-03-18T15:07:44.593Z,1.97
2019-03-18T15:10:14.411Z,2.00
2019-03-18T15:12:43.950Z,2.10
2019-03-18T15:15:14.793Z,2.47
2019-03-18T15:17:44.188Z,2.00
2019-03-18T15:20:13.909Z,1.83
2019-03-18T15:22:43.392Z,2.10
2019-03-18T15:25:17.172Z,1.80
2019-03-18T15:27:46.597Z,2.33
2019-03-18T15:30:17.648Z,2.93
2019-03-18T15:32:47.046Z,1.93
2019-03-18T15:35:16.649Z,1.70
2019-03-18T15:37:46.142Z,2.23
2019-03-18T15:40:16.356Z,2.43
2019-03-18T15:42:45.941Z,1.90
2019-03-18T15:45:16.393Z,2.13
2019-03-18T15:47:45.877Z,2.37
2019-03-18T15:50:16.786Z,1.90
2019-03-18T15:52:46.164Z,2.30
2019-03-18T15:55:15.750Z,2.63
2019-03-18T15:57:45.520Z,2.20
2019-03-18T16:00:16.581Z,2.93
2019-03-18T16:02:45.964Z,2.10
2019-03-18T16:05:15.529Z,2.60
2019-03-18T16:07:45.016Z,2.20
2019-03-18T16:10:14.953Z,2.20
2019-03-18T16:12:44.669Z,2.70
2019-03-18T16:15:14.353Z,2.30
2019-03-18T16:17:43.748Z,2.40
2019-03-18T16:20:14.206Z,2.60
2019-03-18T16:22:43.645Z,2.67
2019-03-18T16:25:13.208Z,2.57
2019-03-18T16:27:42.821Z,3.00
2019-03-18T16:30:13.643Z,3.63
2019-03-18T16:32:43.107Z,2.83
2019-03-18T16:35:15.699Z,3.20
2019-03-18T16:37:44.154Z,3.33
2019-03-18T16:40:13.842Z,4.17
2019-03-18T16:42:43.396Z,3.73
2019-03-18T16:45:13.677Z,3.67
2019-03-18T16:47:43.344Z,4.00
2019-03-18T16:50:14.397Z,4.93
2019-03-18T16:52:43.902Z,3.97
2019-03-18T16:55:13.690Z,3.67
2019-03-18T16:57:43.213Z,3.90
2019-03-18T17:00:14.880Z,3.97
2019-03-18T17:02:44.670Z,3.93
2019-03-18T17:05:14.333Z,4.33
2019-03-18T17:07:43.807Z,4.40
2019-03-18T17:10:13.469Z,5.20
2019-03-18T17:12:42.947Z,5.50
2019-03-18T17:15:12.527Z,5.83
2019-03-18T17:17:42.193Z,5.03
2019-03-18T17:20:12.336Z,5.70
2019-03-18T17:22:48.945Z,3.60
2019-03-18T17:25:15.054Z,3.73
2019-03-18T17:27:44.514Z,4.57
2019-03-18T17:30:16.029Z,4.23
2019-03-18T17:32:45.587Z,3.80
2019-03-18T17:35:16.146Z,5.27
2019-03-18T17:37:45.522Z,4.73
2019-03-18T17:40:15.130Z,4.43
2019-03-18T17:42:44.755Z,5.87
2019-03-18T17:45:14.448Z,6.90
2019-03-18T17:47:43.972Z,6.23
2019-03-18T17:50:15.653Z,5.43
2019-03-18T17:52:45.158Z,5.30
2019-03-18T17:55:14.584Z,5.33
2019-03-18T17:57:44.013Z,7.57
2019-03-18T18:00:17.867Z,6.30
2019-03-18T18:02:47.402Z,5.10
2019-03-18T18:05:16.780Z,5.93
2019-03-18T18:07:46.172Z,5.20
2019-03-18T18:10:15.713Z,5.47
2019-03-18T18:12:45.116Z,6.47
2019-03-18T18:15:14.613Z,7.63
2019-03-18T18:17:44.292Z,8.10
2019-03-18T18:20:13.700Z,8.00
2019-03-18T18:22:43.121Z,8.17
2019-03-18T18:25:12.674Z,8.73
2019-03-18T18:27:42.692Z,5.77
2019-03-18T18:30:12.327Z,5.70
2019-03-18T18:32:41.877Z,6.50
2019-03-18T18:35:11.472Z,7.20
2019-03-18T18:37:41.059Z,4.63
2019-03-18T18:40:11.450Z,5.43
2019-03-18T18:42:40.853Z,4.53
2019-03-18T18:45:11.103Z,4.73
2019-03-18T18:47:40.692Z,5.10
2019-03-18T18:50:10.388Z,4.97
2019-03-18T18:52:39.911Z,5.57
2019-03-18T18:55:09.775Z,4.77
2019-03-18T18:57:39.145Z,3.87
2019-03-18T19:00:10.970Z,4.73
2019-03-18T19:02:40.653Z,4.50
2019-03-18T19:05:10.713Z,5.73
2019-03-18T19:07:40.098Z,6.33
2019-03-18T19:10:10.747Z,6.77
2019-03-18T19:12:40.464Z,8.77
2019-03-18T19:15:12.686Z,9.33
2019-03-18T19:17:42.139Z,7.90
2019-03-18T19:20:11.895Z,7.90
2019-03-18T19:22:41.398Z,9.80
2019-03-18T19:25:12.176Z,9.00
2019-03-18T19:27:42.264Z,8.07
2019-03-18T19:30:18.738Z,8.73
2019-03-18T19:32:48.200Z,10.50
2019-03-18T19:35:19.277Z,8.93
2019-03-18T19:37:50.222Z,8.13
2019-03-18T19:40:19.733Z,8.13
2019-03-18T19:42:49.199Z,7.80
2019-03-18T19:45:18.619Z,8.53
2019-03-18T19:47:48.008Z,8.67
2019-03-18T19:50:18.335Z,9.77
2019-03-18T19:52:47.832Z,9.17
2019-03-18T19:55:17.205Z,6.87
2019-03-18T19:57:46.581Z,7.97
2019-03-18T20:00:17.899Z,7.17
2019-03-18T20:02:47.405Z,6.10
2019-03-18T20:05:18.923Z,6.90
2019-03-18T20:07:47.942Z,7.60
2019-03-18T20:10:17.481Z,7.90
2019-03-18T20:12:46.851Z,6.57
2019-03-18T20:15:16.417Z,7.80
2019-03-18T20:17:46.035Z,6.53
2019-03-18T20:20:15.431Z,6.93
2019-03-18T20:22:44.789Z,6.83
2019-03-18T20:25:14.397Z,6.93
2019-03-18T20:27:43.827Z,7.27
2019-03-18T20:30:15.110Z,6.47
2019-03-18T20:32:44.611Z,7.20
2019-03-18T20:35:14.579Z,7.20
2019-03-18T20:37:44.156Z,7.10
2019-03-18T20:40:14.047Z,7.40
2019-03-18T20:42:43.664Z,7.27
2019-03-18T20:45:14.702Z,7.93
2019-03-18T20:47:44.405Z,6.70
2019-03-18T20:50:15.189Z,7.40
2019-03-18T20:52:44.772Z,7.07
2019-03-18T20:55:14.357Z,7.53
2019-03-18T20:57:43.751Z,6.87
2019-03-18T21:00:14.706Z,7.17
2019-03-18T21:02:44.244Z,7.30
2019-03-18T21:05:13.605Z,7.80
2019-03-18T21:07:42.983Z,8.30
2019-03-18T21:10:12.749Z,7.83
2019-03-18T21:12:42.217Z,8.20
2019-03-18T21:15:11.613Z,7.50
2019-03-18T21:17:41.033Z,8.03
2019-03-18T21:20:12.743Z,8.47
2019-03-18T21:22:42.219Z,7.50
2019-03-18T21:25:11.878Z,8.07
2019-03-18T21:27:41.229Z,7.33
2019-03-18T21:30:11.947Z,8.53
2019-03-18T21:32:41.655Z,8.20
2019-03-18T21:35:11.392Z,8.50
2019-03-18T21:37:40.867Z,8.37
2019-03-18T21:40:11.515Z,8.53
2019-03-18T21:42:40.902Z,8.83
2019-03-18T21:45:12.679Z,8.37
2019-03-18T21:47:42.214Z,7.80
2019-03-18T21:50:12.820Z,8.77
2019-03-18T21:52:42.229Z,8.00
2019-03-18T21:55:12.037Z,7.73
2019-03-18T21:57:41.500Z,8.43
2019-03-18T22:00:15.516Z,8.93
2019-03-18T22:02:44.919Z,8.10
2019-03-18T22:05:14.609Z,8.23
2019-03-18T22:07:44.179Z,8.47
2019-03-18T22:10:13.763Z,7.10
2019-03-18T22:12:43.253Z,7.83
2019-03-18T22:15:12.898Z,7.27
2019-03-18T22:17:42.544Z,8.17
2019-03-18T22:20:14.242Z,8.87
2019-03-18T22:22:43.733Z,8.73
2019-03-18T22:25:13.460Z,7.53
2019-03-18T22:27:42.936Z,7.67
2019-03-18T22:30:12.703Z,8.63
2019-03-18T22:32:42.110Z,7.90
2019-03-18T22:35:11.706Z,7.73
2019-03-18T22:37:41.178Z,7.97
2019-03-18T22:40:11.093Z,8.07
2019-03-18T22:42:40.480Z,8.13
2019-03-18T22:45:10.488Z,8.47
2019-03-18T22:47:39.984Z,7.90
2019-03-18T22:50:09.383Z,8.80
2019-03-18T22:52:39.235Z,8.07
2019-03-18T22:55:09.173Z,7.37
2019-03-18T22:57:38.902Z,7.83
2019-03-18T23:00:15.818Z,7.87
2019-03-18T23:02:45.308Z,7.40
2019-03-18T23:05:20.770Z,8.33
2019-03-18T23:07:50.356Z,6.80
2019-03-18T23:10:19.948Z,7.37
2019-03-18T23:12:49.531Z,7.53
2019-03-18T23:15:18.936Z,7.47
2019-03-18T23:17:48.344Z,7.50
2019-03-18T23:20:17.977Z,7.30
2019-03-18T23:22:47.457Z,7.50
2019-03-18T23:25:16.820Z,6.83
2019-03-18T23:27:46.233Z,6.87
2019-03-18T23:30:15.784Z,6.73
2019-03-18T23:32:45.147Z,7.27
2019-03-18T23:35:14.757Z,7.70
2019-03-18T23:37:44.240Z,7.07
2019-03-18T23:40:13.645Z,6.97
2019-03-18T23:42:43.228Z,7.20
2019-03-18T23:45:13.148Z,7.03
2019-03-18T23:47:42.645Z,7.43
2019-03-18T23:50:12.203Z,7.10
2019-03-18T23:52:41.605Z,7.40
2019-03-18T23:55:19.201Z,6.70
2019-03-18T23:57:44.120Z,7.43
